Time;durP1;ratioP1;P1;durP2;ratioP2;P2;SDS_P1;SDS_P2;PMS_P1;PMS_P2;Temp;Humidity;BMP_temperature;BMP_pressure;BME280_temperature;BME280_humidity;BME280_pressure;Samples;Min_cycle;Max_cycle;Signal;HPM_P1;HPM_P2
2022/05/26 04:02:03;;;;;;;7.20;0.87;;;13.50;96.30;;;;;;5229789;23;20274;-75
2022/05/26 04:04:28;;;;;;;5.03;0.90;;;13.70;96.30;;;;;;4976185;28;20409;-75
2022/05/26 04:06:54;;;;;;;4.20;0.70;;;13.70;96.30;;;;;;4974674;28;20170;-77
2022/05/26 04:09:19;;;;;;;1.43;0.80;;;13.80;96.30;;;;;;4975538;28;20171;-78
2022/05/26 04:11:45;;;;;;;1.57;0.70;;;13.80;96.30;;;;;;4975930;28;20210;-75
2022/05/26 04:14:10;;;;;;;3.33;0.80;;;13.80;96.30;;;;;;4975964;28;20185;-75
2022/05/26 04:16:36;;;;;;;4.40;0.90;;;14.00;96.30;;;;;;4977416;28;20182;-76
2022/05/26 04:19:02;;;;;;;1.67;0.70;;;14.10;96.30;;;;;;4974290;28;20653;-76
2022/05/26 04:21:28;;;;;;;3.97;2.07;;;14.20;96.00;;;;;;4975517;28;20252;-77
2022/05/26 04:23:53;;;;;;;4.03;0.77;;;14.30;96.30;;;;;;4974588;28;20445;-78
2022/05/26 04:26:20;;;;;;;1.33;0.70;;;14.50;96.30;;;;;;4974150;28;20205;-78
2022/05/26 04:28:45;;;;;;;1.00;0.70;;;14.60;95.00;;;;;;4974734;28;20181;-78
2022/05/26 04:31:11;;;;;;;2.43;0.70;;;14.70;95.50;;;;;;4975079;28;20460;-77
2022/05/26 04:33:37;;;;;;;0.90;0.70;;;14.80;94.60;;;;;;4975072;28;20182;-77
2022/05/26 04:36:04;;;;;;;5.60;0.80;;;15.20;95.40;;;;;;4974849;28;20170;-77
2022/05/26 04:38:30;;;;;;;1.80;1.00;;;15.80;92.80;;;;;;4974756;28;20571;-76
2022/05/26 04:41:01;;;;;;;1.50;0.80;;;16.50;92.00;;;;;;4973293;28;21021;-76
2022/05/26 04:43:27;;;;;;;2.47;0.70;;;17.10;89.90;;;;;;4975463;28;20768;-75
2022/05/26 04:45:53;;;;;;;3.93;0.80;;;17.10;89.10;;;;;;4975105;28;20410;-78
2022/05/26 04:48:21;;;;;;;2.27;0.80;;;17.00;88.30;;;;;;4974533;28;20425;-79
2022/05/26 04:50:48;;;;;;;4.03;0.83;;;17.30;89.30;;;;;;4974978;28;20186;-77
2022/05/26 04:53:14;;;;;;;1.30;0.80;;;17.20;88.10;;;;;;4974848;28;20476;-74
2022/05/26 04:55:39;;;;;;;2.07;0.80;;;16.90;89.70;;;;;;4975135;28;20922;-76
2022/05/26 04:58:05;;;;;;;2.10;0.80;;;16.40;91.00;;;;;;4974565;28;20257;-75
2022/05/26 05:00:31;;;;;;;7.70;1.10;;;15.80;92.80;;;;;;4974645;28;20210;-74
2022/05/26 05:02:56;;;;;;;2.10;0.80;;;15.60;94.10;;;;;;4974934;28;20175;-75
2022/05/26 05:05:22;;;;;;;2.33;0.90;;;15.40;95.40;;;;;;4974839;28;20182;-79
2022/05/26 05:07:47;;;;;;;3.40;0.80;;;15.30;95.40;;;;;;4974554;28;20179;-74
2022/05/26 05:10:13;;;;;;;2.23;0.87;;;15.30;95.60;;;;;;4974909;28;20641;-76
2022/05/26 05:12:40;;;;;;;2.40;1.20;;;15.70;95.80;;;;;;4975625;28;20174;-76
2022/05/26 05:15:15;;;;;;;1.13;0.70;;;16.30;93.80;;;;;;4975502;28;20158;-75
2022/05/26 05:17:41;;;;;;;2.60;0.83;;;16.50;93.70;;;;;;4975003;28;20436;-75
2022/05/26 05:20:07;;;;;;;9.40;0.90;;;16.30;92.40;;;;;;4975703;28;20437;-77
2022/05/26 05:22:40;;;;;;;1.57;0.73;;;16.20;92.90;;;;;;4975675;28;20269;-75
2022/05/26 05:25:08;;;;;;;1.07;0.70;;;15.90;93.70;;;;;;4975919;28;20393;-76
2022/05/26 05:27:37;;;;;;;1.37;0.80;;;15.60;95.50;;;;;;4975190;28;20514;-77
2022/05/26 05:30:07;;;;;;;6.00;1.00;;;15.50;96.20;;;;;;4975679;28;20442;-78
2022/05/26 05:32:40;;;;;;;1.57;0.87;;;15.10;96.20;;;;;;4976722;28;20487;-78
2022/05/26 05:35:15;;;;;;;3.33;0.73;;;14.90;96.30;;;;;;4976052;28;20401;-77
2022/05/26 05:37:41;;;;;;;3.10;0.87;;;14.90;96.30;;;;;;4990290;28;20398;-76
2022/05/26 05:40:07;;;;;;;1.40;1.00;;;15.00;96.30;;;;;;4996207;28;20486;-75
2022/05/26 05:42:33;;;;;;;3.70;0.77;;;15.10;96.30;;;;;;4991911;28;20238;-77
2022/05/26 05:44:58;;;;;;;10.40;0.90;;;15.10;96.30;;;;;;4974378;28;20464;-78
2022/05/26 05:47:24;;;;;;;1.27;0.70;;;15.00;96.30;;;;;;4962435;28;20209;-77
2022/05/26 05:49:50;;;;;;;3.93;0.83;;;15.30;96.30;;;;;;4954569;28;20183;-78
2022/05/26 05:52:23;;;;;;;1.00;0.70;;;15.70;96.30;;;;;;4955175;29;20953;-75
2022/05/26 05:54:48;;;;;;;2.50;1.10;;;15.80;96.30;;;;;;4955258;28;20211;-76
2022/05/26 05:57:14;;;;;;;6.10;0.80;;;15.70;94.70;;;;;;4955913;29;20422;-76
2022/05/26 05:59:40;;;;;;;1.00;0.77;;;15.90;94.40;;;;;;4955144;29;20309;-77
2022/05/26 06:02:06;;;;;;;1.73;0.90;;;16.00;96.30;;;;;;4963446;28;20225;-76
2022/05/26 06:04:32;;;;;;;3.67;0.90;;;16.30;96.00;;;;;;4960930;28;20279;-77
2022/05/26 06:06:59;;;;;;;2.50;0.73;;;16.40;93.70;;;;;;4954765;29;20402;-75
2022/05/26 06:09:24;;;;;;;1.20;0.73;;;16.30;94.30;;;;;;4954778;28;20407;-76
2022/05/26 06:11:50;;;;;;;3.63;0.80;;;16.30;96.00;;;;;;4961363;28;20453;-76
2022/05/26 06:14:16;;;;;;;5.00;0.77;;;16.40;94.40;;;;;;4972477;28;20225;-75
2022/05/26 06:16:44;;;;;;;1.80;0.77;;;16.60;96.10;;;;;;4973392;28;20186;-76
2022/05/26 06:19:10;;;;;;;2.73;0.87;;;16.40;94.70;;;;;;4973379;28;20421;-77
2022/05/26 06:21:37;;;;;;;2.77;0.90;;;16.30;96.20;;;;;;4974028;28;20469;-77
2022/05/26 06:24:03;;;;;;;1.57;0.90;;;16.20;94.50;;;;;;4973827;28;20172;-77
2022/05/26 06:26:29;;;;;;;28.90;2.50;;;16.50;95.30;;;;;;4973129;28;20409;-76
2022/05/26 06:31:39;;;;;;;4.20;0.80;;;16.50;94.80;;;;;;4955943;28;20441;-76
2022/05/26 06:37:35;;;;;;;8.00;1.10;;;16.30;95.60;;;;;;4955006;29;20202;-77
2022/05/26 06:39:35;;;;;;;4.67;0.90;;;16.60;96.30;;;;;;4950431;28;20452;-76
2022/05/26 06:42:07;;;;;;;1.00;0.60;;;16.80;94.70;;;;;;4953521;28;20502;-76
2022/05/26 06:44:37;;;;;;;6.30;0.90;;;16.60;94.60;;;;;;4954713;29;20175;-77
2022/05/26 06:47:07;;;;;;;2.80;0.80;;;16.30;95.00;;;;;;4954594;28;20470;-76
2022/05/26 06:49:35;;;;;;;1.30;0.70;;;16.10;95.60;;;;;;4952678;29;20421;-76
2022/05/26 06:52:02;;;;;;;1.00;0.70;;;15.90;96.20;;;;;;4954165;28;20430;-75
2022/05/26 06:54:31;;;;;;;1.97;0.90;;;16.10;96.30;;;;;;4954076;28;20449;-76
2022/05/26 06:56:56;;;;;;;1.10;0.70;;;16.20;96.30;;;;;;4954238;28;20422;-76
2022/05/26 06:59:22;;;;;;;2.23;0.77;;;16.10;96.30;;;;;;4953295;29;20418;-76
2022/05/26 07:01:47;;;;;;;4.30;0.70;;;16.10;96.30;;;;;;4953919;29;20214;-76
2022/05/26 07:04:13;;;;;;;6.43;0.97;;;16.10;96.30;;;;;;4953832;29;20179;-75
2022/05/26 07:06:38;;;;;;;1.80;0.83;;;16.10;96.30;;;;;;4954243;29;20167;-75
2022/05/26 07:09:03;;;;;;;2.03;0.80;;;16.00;96.30;;;;;;4953439;29;20209;-74
2022/05/26 07:11:30;;;;;;;3.00;0.90;;;15.80;96.30;;;;;;4953883;29;20245;-76
2022/05/26 07:13:56;;;;;;;1.57;0.90;;;15.80;96.30;;;;;;4952555;29;20238;-76
2022/05/26 07:16:21;;;;;;;2.07;0.70;;;16.10;96.30;;;;;;4953888;29;20418;-76
2022/05/26 07:18:47;;;;;;;1.40;0.80;;;16.30;96.30;;;;;;4958169;28;20203;-76
2022/05/26 07:21:12;;;;;;;1.97;0.77;;;16.40;96.30;;;;;;4960950;28;20289;-75
2022/05/26 07:23:38;;;;;;;3.10;0.70;;;16.70;96.30;;;;;;4963416;28;20553;-75
2022/05/26 07:26:10;;;;;;;2.20;0.90;;;16.90;96.30;;;;;;4955788;28;20179;-76
2022/05/26 07:28:37;;;;;;;3.27;0.70;;;17.20;96.30;;;;;;4958818;28;20944;-75
2022/05/26 07:31:02;;;;;;;1.37;0.70;;;17.30;96.30;;;;;;4972847;28;20828;-74
2022/05/26 07:33:28;;;;;;;1.30;0.60;;;17.20;96.30;;;;;;4972882;28;20422;-76
2022/05/26 07:35:54;;;;;;;1.73;0.70;;;17.20;95.10;;;;;;4972581;28;20181;-74
2022/05/26 07:41:19;;;;;;;4.70;1.00;;;17.80;96.30;;;;;;4963552;28;20641;-75
2022/05/26 07:43:48;;;;;;;1.20;0.70;;;18.30;94.80;;;;;;4966733;28;20406;-76
2022/05/26 07:46:15;;;;;;;1.83;0.73;;;18.20;93.00;;;;;;4969635;28;20422;-75
2022/05/26 07:48:40;;;;;;;1.33;0.67;;;17.80;95.00;;;;;;4972775;28;20784;-76
2022/05/26 07:51:09;;;;;;;6.53;0.70;;;17.70;95.60;;;;;;4972970;28;20437;-76
2022/05/26 07:53:34;;;;;;;3.83;0.90;;;17.90;94.60;;;;;;4972943;28;20183;-75
2022/05/26 07:56:02;;;;;;;1.40;0.80;;;17.70;94.70;;;;;;4972690;28;20959;-76
2022/05/26 07:58:28;;;;;;;4.10;0.80;;;17.50;96.30;;;;;;4973956;28;20216;-75
2022/05/26 08:00:54;;;;;;;2.77;0.80;;;17.50;96.30;;;;;;4975369;28;21071;-75
2022/05/26 08:03:20;;;;;;;2.03;0.80;;;17.50;96.10;;;;;;4975957;28;20493;-75
2022/05/26 08:05:46;;;;;;;3.77;1.00;;;17.60;95.20;;;;;;4975967;28;20956;-75
2022/05/26 08:08:12;;;;;;;2.10;1.00;;;17.90;96.30;;;;;;4975753;28;20553;-75
2022/05/26 08:10:38;;;;;;;1.10;0.70;;;18.40;93.30;;;;;;4975883;28;20281;-76
2022/05/26 08:13:04;;;;;;;2.33;1.10;;;18.40;93.90;;;;;;4975937;28;20185;-76
2022/05/26 08:15:31;;;;;;;3.10;0.90;;;18.40;93.30;;;;;;4975844;28;20418;-76
2022/05/26 08:17:56;;;;;;;3.23;1.53;;;18.60;92.70;;;;;;4975552;28;20181;-74
2022/05/26 08:20:24;;;;;;;1.03;0.80;;;18.70;92.80;;;;;;4975710;28;20414;-74
2022/05/26 08:22:50;;;;;;;5.30;0.83;;;19.00;93.50;;;;;;4975732;28;20211;-75
2022/05/26 08:25:15;;;;;;;1.73;0.90;;;19.20;92.40;;;;;;4975690;28;20441;-75
2022/05/26 08:27:41;;;;;;;3.63;0.80;;;18.90;90.60;;;;;;4975346;28;20186;-74
2022/05/26 08:30:08;;;;;;;5.47;0.80;;;19.00;93.70;;;;;;4975648;28;20182;-74
2022/05/26 08:32:33;;;;;;;2.60;0.70;;;19.20;91.50;;;;;;4975397;28;20434;-76
2022/05/26 08:35:08;;;;;;;7.53;0.93;;;19.20;91.10;;;;;;4975513;28;20751;-75
2022/05/26 08:37:34;;;;;;;3.83;1.40;;;19.50;92.70;;;;;;4975231;28;20236;-76
2022/05/26 08:39:59;;;;;;;5.13;0.73;;;19.50;91.30;;;;;;4975510;28;20418;-75
2022/05/26 08:42:27;;;;;;;2.03;0.67;;;19.90;89.80;;;;;;4975237;28;20225;-75
2022/05/26 08:44:56;;;;;;;1.27;0.63;;;20.20;91.20;;;;;;4975380;28;20531;-75
2022/05/26 08:47:30;;;;;;;0.90;0.70;;;20.00;89.30;;;;;;4975200;28;20439;-75
2022/05/26 08:50:09;;;;;;;1.63;0.83;;;19.80;90.30;;;;;;4975111;28;20509;-75
2022/05/26 08:52:51;;;;;;;1.17;0.70;;;20.20;89.90;;;;;;4975073;28;20464;-75
2022/05/26 08:55:22;;;;;;;4.97;0.90;;;20.70;90.70;;;;;;4975268;28;20445;-75
2022/05/26 08:58:17;;;;;;;1.53;0.67;;;20.30;88.30;;;;;;4973639;28;20418;-75
2022/05/26 09:00:46;;;;;;;2.80;0.93;;;21.20;87.70;;;;;;4974807;28;20531;-75
2022/05/26 09:03:29;;;;;;;1.63;0.60;;;21.80;84.10;;;;;;4975130;28;20501;-75
2022/05/26 09:06:07;;;;;;;2.20;0.73;;;20.80;86.60;;;;;;4975015;28;20446;-75
2022/05/26 09:14:28;;;;;;;2.90;0.70;;;20.90;85.60;;;;;;4974999;28;20774;-75
2022/05/26 09:17:06;;;;;;;5.87;0.80;;;21.50;87.30;;;;;;4974806;28;20421;-75
2022/05/26 09:19:48;;;;;;;3.40;1.10;;;21.80;85.80;;;;;;4974550;28;20453;-77
2022/05/26 09:22:41;;;;;;;2.50;0.90;;;21.60;84.70;;;;;;4974604;28;20465;-76
2022/05/26 09:25:29;;;;;;;1.97;0.80;;;20.80;85.10;;;;;;4974550;28;20811;-75
2022/05/26 09:27:55;;;;;;;6.63;0.80;;;20.20;88.30;;;;;;4974301;28;20436;-75
2022/05/26 09:30:27;;;;;;;3.47;0.70;;;21.10;88.10;;;;;;4974340;28;20776;-75
2022/05/26 09:32:54;;;;;;;2.00;0.63;;;21.90;86.90;;;;;;4973198;28;20229;-75
2022/05/26 09:35:19;;;;;;;1.00;0.60;;;21.70;82.20;;;;;;4974491;28;20406;-76
2022/05/26 09:37:51;;;;;;;1.77;0.80;;;21.60;84.50;;;;;;4973944;28;20481;-75
2022/05/26 09:40:34;;;;;;;2.50;0.83;;;21.40;84.10;;;;;;4974270;28;20174;-75
2022/05/26 09:43:26;;;;;;;2.90;0.80;;;22.00;83.80;;;;;;4974525;28;20417;-75
2022/05/26 09:45:58;;;;;;;2.07;0.70;;;22.80;84.60;;;;;;4976750;28;20422;-75
2022/05/26 09:48:32;;;;;;;1.10;0.60;;;21.90;84.50;;;;;;4974026;28;20469;-75
2022/05/26 09:51:10;;;;;;;5.37;0.70;;;21.50;84.70;;;;;;4974152;28;20429;-75
2022/05/26 09:53:39;;;;;;;1.37;0.70;;;22.30;86.00;;;;;;4974106;28;20784;-75
2022/05/26 09:56:05;;;;;;;1.47;0.80;;;22.90;83.40;;;;;;4974136;28;20793;-75
2022/05/26 09:58:37;;;;;;;2.60;0.90;;;24.20;83.10;;;;;;4973705;28;20414;-75
2022/05/26 10:01:12;;;;;;;1.33;0.50;;;24.70;78.20;;;;;;4973769;28;20976;-75
2022/05/26 10:03:46;;;;;;;1.10;0.70;;;24.00;79.60;;;;;;4974036;28;20915;-75
2022/05/26 10:06:35;;;;;;;1.20;0.70;;;23.50;79.20;;;;;;4974016;28;20408;-76
2022/05/26 10:09:25;;;;;;;1.63;0.80;;;23.20;81.70;;;;;;4973663;28;20414;-75
2022/05/26 10:12:01;;;;;;;2.87;0.70;;;22.70;77.90;;;;;;4973834;28;20425;-75
2022/05/26 10:14:41;;;;;;;2.00;0.70;;;22.20;82.20;;;;;;4973710;28;20417;-75
2022/05/26 10:17:30;;;;;;;4.70;0.80;;;22.40;83.00;;;;;;4974576;28;20409;-75
2022/05/26 10:20:24;;;;;;;4.40;1.10;;;23.00;79.20;;;;;;4973823;28;20417;-76
2022/05/26 10:23:00;;;;;;;1.20;0.60;;;23.10;80.20;;;;;;4972006;28;20429;-75
2022/05/26 10:25:57;;;;;;;2.90;0.70;;;23.20;78.10;;;;;;4973349;28;20861;-75
2022/05/26 10:28:40;;;;;;;1.20;0.60;;;23.40;78.80;;;;;;4974323;28;20418;-76
2022/05/26 10:31:44;;;;;;;1.50;1.37;;;23.60;79.90;;;;;;4973934;28;20425;-76
2022/05/26 10:34:47;;;;;;;1.10;0.70;;;23.80;78.00;;;;;;4974002;28;20456;-76
2022/05/26 10:37:40;;;;;;;1.30;0.67;;;23.80;78.20;;;;;;4973761;28;20456;-76
2022/05/26 10:40:27;;;;;;;2.60;0.90;;;24.20;79.40;;;;;;4974165;28;20816;-75
2022/05/26 10:43:03;;;;;;;1.40;1.00;;;24.50;76.90;;;;;;4973135;28;20445;-75
2022/05/26 10:45:47;;;;;;;2.60;0.70;;;24.40;80.70;;;;;;4973361;28;20421;-75
2022/05/26 10:48:28;;;;;;;1.60;0.87;;;24.20;79.90;;;;;;4973143;28;20401;-75
2022/05/26 10:51:06;;;;;;;1.23;0.70;;;24.70;78.30;;;;;;4973190;28;20431;-75
2022/05/26 10:53:46;;;;;;;5.83;0.90;;;24.50;77.30;;;;;;4973241;28;20452;-75
2022/05/26 10:56:26;;;;;;;2.13;0.70;;;24.00;77.80;;;;;;4973288;28;20424;-76
2022/05/26 10:59:00;;;;;;;0.90;0.60;;;22.40;78.80;;;;;;4972949;28;20493;-75
2022/05/26 11:01:34;;;;;;;3.83;0.93;;;20.90;82.10;;;;;;4972895;28;20469;-75
2022/05/26 11:04:35;;;;;;;1.87;0.80;;;20.20;85.00;;;;;;4972980;28;20913;-75
2022/05/26 11:07:18;;;;;;;2.23;0.70;;;20.10;85.70;;;;;;4969239;28;20418;-74
2022/05/26 11:09:52;;;;;;;4.53;0.90;;;19.80;86.00;;;;;;4972969;28;20484;-74
2022/05/26 11:12:26;;;;;;;3.83;0.60;;;20.00;88.00;;;;;;4972902;28;21021;-74
2022/05/26 11:17:46;;;;;;;3.30;0.80;;;22.80;83.10;;;;;;4972892;28;20488;-74
2022/05/26 11:20:22;;;;;;;1.67;0.80;;;24.30;82.70;;;;;;4972779;28;20405;-75
2022/05/26 11:22:51;;;;;;;12.60;0.83;;;24.10;75.60;;;;;;4973002;28;20488;-75
2022/05/26 11:25:28;;;;;;;1.63;0.70;;;22.70;79.60;;;;;;4972793;28;20422;-75
2022/05/26 11:28:03;;;;;;;7.60;1.00;;;21.90;79.40;;;;;;4972522;28;20406;-75
2022/05/26 11:36:55;;;;;;;3.70;0.70;;;21.50;83.80;;;;;;4976055;28;20935;-75
2022/05/26 11:39:34;;;;;;;4.20;0.90;;;22.90;81.70;;;;;;4975022;28;20504;-76
2022/05/26 11:42:03;;;;;;;2.40;0.80;;;23.50;79.60;;;;;;4976386;28;21059;-75
2022/05/26 11:44:56;;;;;;;1.33;0.67;;;23.20;79.50;;;;;;4976486;28;20408;-77
2022/05/26 11:47:33;;;;;;;1.63;0.70;;;22.80;79.10;;;;;;4976356;28;20500;-76
2022/05/26 11:49:58;;;;;;;5.23;0.87;;;22.00;80.30;;;;;;4976361;28;21050;-75
2022/05/26 11:52:46;;;;;;;3.70;0.70;;;21.70;80.00;;;;;;4976209;28;20468;-74
2022/05/26 11:55:31;;;;;;;1.27;0.60;;;21.20;81.90;;;;;;4976037;28;20190;-75
2022/05/26 11:58:12;;;;;;;4.50;1.10;;;21.30;83.00;;;;;;4975995;28;20468;-75
2022/05/26 12:00:40;;;;;;;2.70;0.70;;;21.00;82.40;;;;;;4976004;28;20480;-75
2022/05/26 12:03:22;;;;;;;1.20;0.63;;;20.70;82.40;;;;;;4976050;28;20750;-75
2022/05/26 12:05:58;;;;;;;4.20;0.70;;;20.00;86.60;;;;;;4976006;28;20424;-75
2022/05/26 12:08:35;;;;;;;1.10;0.63;;;20.00;86.20;;;;;;4975665;28;20425;-74
2022/05/26 12:11:03;;;;;;;7.73;0.80;;;20.30;84.30;;;;;;4975905;28;20932;-74
2022/05/26 12:13:34;;;;;;;3.83;0.80;;;20.20;85.60;;;;;;4975861;28;20505;-74
2022/05/26 12:16:14;;;;;;;2.20;0.70;;;20.40;84.60;;;;;;4975858;28;20821;-75
2022/05/26 12:18:59;;;;;;;1.73;0.60;;;21.00;83.00;;;;;;4969345;28;20417;-75
2022/05/26 12:21:27;;;;;;;1.90;0.63;;;21.50;83.20;;;;;;4966123;28;20498;-76
2022/05/26 12:23:53;;;;;;;0.80;0.57;;;21.50;81.90;;;;;;4960821;28;20772;-74
2022/05/26 12:26:47;;;;;;;1.10;0.60;;;22.30;80.30;;;;;;4963520;28;20493;-76
2022/05/26 12:29:46;;;;;;;1.50;0.60;;;22.30;78.20;;;;;;4966113;28;20495;-76
2022/05/26 12:32:14;;;;;;;0.83;0.50;;;21.40;80.90;;;;;;4967834;28;20652;-75
2022/05/26 12:35:06;;;;;;;2.53;0.77;;;21.10;82.00;;;;;;4965462;28;20413;-74
2022/05/26 12:37:43;;;;;;;0.90;0.60;;;20.40;82.30;;;;;;4965574;28;20406;-75
2022/05/26 12:40:23;;;;;;;15.43;1.20;;;21.30;87.20;;;;;;4961376;28;20429;-76
2022/05/26 12:43:29;;;;;;;1.10;0.60;;;22.50;82.50;;;;;;4966466;28;20497;-76
2022/05/26 12:46:16;;;;;;;1.00;0.60;;;23.30;77.90;;;;;;4962544;28;20418;-75
2022/05/26 12:48:49;;;;;;;1.13;0.60;;;22.70;79.60;;;;;;4963396;28;20404;-74
2022/05/26 12:51:16;;;;;;;1.37;0.60;;;22.50;79.10;;;;;;4974585;28;20442;-75
2022/05/26 12:53:56;;;;;;;1.20;0.60;;;22.70;80.20;;;;;;4971833;28;21173;-77
2022/05/26 12:56:36;;;;;;;1.00;0.53;;;23.30;80.40;;;;;;4964575;28;20421;-76
2022/05/26 12:59:03;;;;;;;1.00;0.60;;;23.00;76.10;;;;;;4954054;29;20427;-76
2022/05/26 13:01:30;;;;;;;1.00;0.60;;;22.20;80.30;;;;;;4963350;28;20829;-75
2022/05/26 13:04:06;;;;;;;2.23;0.70;;;21.70;80.20;;;;;;4969442;28;20418;-75
2022/05/26 13:06:38;;;;;;;0.90;0.50;;;21.70;82.60;;;;;;4974870;28;20540;-74
2022/05/26 13:09:14;;;;;;;1.00;0.60;;;22.60;81.10;;;;;;4974724;28;20920;-74
2022/05/26 13:11:52;;;;;;;1.00;0.60;;;22.90;78.70;;;;;;4974881;28;20794;-74
2022/05/26 13:14:58;;;;;;;2.10;0.80;;;22.90;77.40;;;;;;4974792;28;20441;-75
2022/05/26 13:17:28;;;;;;;1.10;0.60;;;23.10;78.10;;;;;;4971550;28;20440;-75
2022/05/26 13:19:59;;;;;;;1.07;0.60;;;22.70;76.90;;;;;;4974883;28;20413;-75
2022/05/26 13:22:31;;;;;;;2.30;0.70;;;23.10;75.90;;;;;;4963228;28;20466;-75
2022/05/26 13:24:59;;;;;;;1.20;0.70;;;23.00;75.70;;;;;;4970449;28;20946;-76
2022/05/26 13:27:27;;;;;;;2.90;0.70;;;23.30;78.50;;;;;;4973305;28;20428;-77
2022/05/26 13:33:07;;;;;;;1.73;0.70;;;23.20;78.20;;;;;;4966566;28;20781;-75
2022/05/26 13:35:24;;;;;;;2.20;0.63;;;21.90;77.00;;;;;;4958085;28;20442;-74
2022/05/26 13:37:50;;;;;;;17.83;1.10;;;20.90;80.60;;;;;;4972724;28;20422;-74
2022/05/26 13:40:25;;;;;;;1.00;0.60;;;20.70;81.20;;;;;;4968363;28;20650;-74
2022/05/26 13:42:51;;;;;;;2.97;0.70;;;20.10;83.00;;;;;;4969308;28;20182;-74
2022/05/26 13:45:24;;;;;;;1.70;0.70;;;20.20;83.80;;;;;;4964170;28;20437;-76
2022/05/26 13:48:19;;;;;;;1.97;0.60;;;19.90;83.30;;;;;;4965615;28;20472;-75
2022/05/26 13:50:53;;;;;;;0.90;0.50;;;19.50;83.60;;;;;;4968901;28;20430;-74
2022/05/26 13:53:19;;;;;;;1.00;0.50;;;19.30;84.10;;;;;;4966087;28;20422;-75
2022/05/26 13:55:46;;;;;;;1.60;0.57;;;18.70;85.70;;;;;;4973364;28;20417;-74
2022/05/26 13:58:16;;;;;;;1.00;0.60;;;18.60;86.90;;;;;;4973271;28;20414;-75
2022/05/26 14:00:41;;;;;;;2.97;0.63;;;18.60;86.90;;;;;;4973472;28;20556;-75
2022/05/26 14:03:27;;;;;;;1.83;0.60;;;18.60;86.80;;;;;;4973860;28;20951;-75
2022/05/26 14:05:59;;;;;;;0.90;0.60;;;18.30;87.20;;;;;;4974038;28;20602;-74
2022/05/26 14:08:25;;;;;;;5.03;0.90;;;18.30;88.30;;;;;;4973243;28;20410;-75
2022/05/26 14:10:54;;;;;;;1.87;0.60;;;18.20;88.00;;;;;;4973306;28;20492;-75
2022/05/26 14:13:19;;;;;;;2.97;0.60;;;18.30;88.90;;;;;;4972581;28;20261;-75
2022/05/26 14:15:50;;;;;;;8.20;0.70;;;18.20;88.10;;;;;;4973665;28;20497;-75
2022/05/26 14:18:40;;;;;;;7.13;0.90;;;18.20;88.30;;;;;;4971008;28;20174;-75
2022/05/26 14:21:12;;;;;;;1.93;0.70;;;18.20;90.00;;;;;;4962779;28;21103;-75
2022/05/26 14:23:51;;;;;;;0.90;0.60;;;18.40;90.20;;;;;;4973447;28;20394;-74
2022/05/26 14:26:41;;;;;;;45.93;29.17;;;18.50;89.40;;;;;;4973482;28;20780;-76
2022/05/26 14:29:16;;;;;;;632.50;537.07;;;18.90;89.70;;;;;;4972812;28;20952;-75
2022/05/26 14:31:56;;;;;;;333.77;279.23;;;20.30;91.90;;;;;;4972906;28;20444;-75
2022/05/26 14:34:35;;;;;;;1999.90;999.90;;;21.20;86.00;;;;;;4973280;28;20416;-75
2022/05/26 14:37:00;;;;;;;58.47;52.47;;;22.10;83.60;;;;;;4973345;28;20405;-75
2022/05/26 14:39:26;;;;;;;3.10;0.90;;;21.60;82.70;;;;;;4972679;28;20774;-74
2022/05/26 14:41:53;;;;;;;1.10;0.70;;;21.50;83.40;;;;;;4972863;28;20569;-75
2022/05/26 14:44:19;;;;;;;7.77;1.50;;;21.60;82.60;;;;;;4973433;28;20175;-75
2022/05/26 14:46:45;;;;;;;1.40;0.70;;;21.70;83.30;;;;;;4973190;28;20412;-76
2022/05/26 14:49:11;;;;;;;1.37;0.70;;;21.70;81.80;;;;;;4972713;28;20174;-75
2022/05/26 14:51:37;;;;;;;7.23;1.67;;;21.50;82.60;;;;;;4972740;28;20452;-75
2022/05/26 14:56:47;;;;;;;2.57;2.20;;;20.20;83.30;;;;;;4961797;28;20791;-75
2022/05/26 14:59:14;;;;;;;8.30;4.20;;;21.00;86.30;;;;;;4970614;28;20453;-75
2022/05/26 15:01:40;;;;;;;43.73;30.70;;;22.20;82.60;;;;;;4972573;28;20511;-76
2022/05/26 15:04:05;;;;;;;2.90;0.83;;;21.90;79.60;;;;;;4973140;28;20441;-75
2022/05/26 15:06:38;;;;;;;1.37;0.93;;;21.70;82.30;;;;;;4969597;28;20171;-75
2022/05/26 15:09:19;;;;;;;3.13;1.10;;;20.70;81.80;;;;;;4965044;28;20964;-75
2022/05/26 15:11:46;;;;;;;36.70;28.47;;;19.90;85.20;;;;;;4957721;28;20500;-75
2022/05/26 15:14:11;;;;;;;10.07;5.87;;;19.60;86.00;;;;;;4956234;29;20433;-75
2022/05/26 15:16:40;;;;;;;2.20;0.90;;;20.20;88.10;;;;;;4957617;29;20506;-74
2022/05/26 15:19:06;;;;;;;7.20;6.00;;;20.90;86.70;;;;;;4957088;28;20221;-75
2022/05/26 15:21:32;;;;;;;4.67;4.20;;;26.30;72.70;;;;;;4955693;29;20613;-76
2022/05/26 15:23:57;;;;;;;10.80;3.23;;;28.70;65.40;;;;;;4957552;29;20965;-76
2022/05/26 15:26:24;;;;;;;5.73;1.83;;;29.40;64.50;;;;;;4960081;28;20233;-76
2022/05/26 15:28:52;;;;;;;3.43;2.13;;;29.80;63.70;;;;;;4968425;28;20201;-76
2022/05/26 15:31:19;;;;;;;6.43;2.43;;;28.70;64.20;;;;;;4976612;28;20437;-75
2022/05/26 15:33:44;;;;;;;2.90;1.00;;;30.00;63.30;;;;;;4975408;28;20435;-76
2022/05/26 15:36:12;;;;;;;10.00;1.70;;;30.00;62.10;;;;;;4976564;28;20425;-76
2022/05/26 15:38:43;;;;;;;2.80;1.17;;;29.50;62.00;;;;;;4976165;28;20200;-75
2022/05/26 15:41:09;;;;;;;87.37;41.00;;;28.30;64.60;;;;;;4976241;28;20464;-76
2022/05/26 15:43:36;;;;;;;410.93;260.53;;;25.40;70.40;;;;;;4976620;28;20409;-78
2022/05/26 15:46:09;;;;;;;66.27;45.50;;;25.30;73.00;;;;;;4976546;28;20410;-78
2022/05/26 15:48:35;;;;;;;304.37;210.10;;;24.70;71.80;;;;;;4975816;28;20476;-75
2022/05/26 15:51:02;;;;;;;117.93;67.40;;;24.10;74.50;;;;;;4976004;28;20531;-76
2022/05/26 15:53:29;;;;;;;19.47;9.93;;;24.20;77.10;;;;;;4965015;28;20178;-77
2022/05/26 15:56:01;;;;;;;2.13;1.10;;;24.80;74.20;;;;;;4976383;28;20492;-75
2022/05/26 15:58:27;;;;;;;1.00;0.70;;;24.90;72.70;;;;;;4973822;28;20426;-75
2022/05/26 16:00:54;;;;;;;3.73;0.80;;;23.30;72.80;;;;;;4975970;28;20891;-75
2022/05/26 16:03:22;;;;;;;3.23;1.20;;;23.00;74.10;;;;;;4976071;28;20478;-76
2022/05/26 16:05:49;;;;;;;4.50;1.20;;;22.10;76.90;;;;;;4976025;28;20489;-77
2022/05/26 16:08:15;;;;;;;1.40;0.87;;;21.50;78.70;;;;;;4975468;28;20413;-75
2022/05/26 16:10:41;;;;;;;1.43;0.90;;;21.50;79.30;;;;;;4975857;28;20432;-75
2022/05/26 16:13:08;;;;;;;1.83;0.83;;;22.00;78.60;;;;;;4974760;28;20509;-75
2022/05/26 16:15:34;;;;;;;2.70;1.10;;;21.60;78.20;;;;;;4975350;28;20198;-74
2022/05/26 16:18:01;;;;;;;2.27;0.90;;;21.20;80.00;;;;;;4975344;28;20921;-75
2022/05/26 16:20:27;;;;;;;1.97;0.83;;;21.70;79.90;;;;;;4972258;28;20549;-75
2022/05/26 16:22:53;;;;;;;2.30;1.00;;;22.20;78.50;;;;;;4976058;28;20405;-77
2022/05/26 16:25:20;;;;;;;2.80;1.10;;;22.80;78.10;;;;;;4974329;28;20186;-76
2022/05/26 16:27:46;;;;;;;4.50;1.13;;;23.50;77.30;;;;;;4975022;28;20417;-75
2022/05/26 16:30:17;;;;;;;2.10;0.90;;;23.60;75.90;;;;;;4975765;28;20405;-76
2022/05/26 16:32:42;;;;;;;1.20;0.70;;;23.00;76.90;;;;;;4974907;28;20422;-75
2022/05/26 16:37:55;;;;;;;95.40;4.50;;;22.00;78.80;;;;;;4974957;28;20730;-77
2022/05/26 16:40:22;;;;;;;1.33;0.90;;;22.60;77.20;;;;;;4976271;28;20829;-78
2022/05/26 16:42:50;;;;;;;4.90;0.90;;;22.80;75.40;;;;;;4975125;28;20488;-77
2022/05/26 16:45:17;;;;;;;5.03;1.30;;;22.30;75.90;;;;;;4976392;28;20417;-78
2022/05/26 16:47:42;;;;;;;1.30;0.90;;;22.00;76.30;;;;;;4975039;28;20409;-77
2022/05/26 16:50:09;;;;;;;3.57;1.10;;;21.80;76.70;;;;;;4976049;28;20405;-78
2022/05/26 16:52:34;;;;;;;2.50;1.20;;;21.60;76.40;;;;;;4975303;28;20209;-77
2022/05/26 16:55:00;;;;;;;1.40;0.90;;;21.50;77.50;;;;;;4975067;28;20480;-77
2022/05/26 16:57:26;;;;;;;4.03;1.50;;;21.60;77.40;;;;;;4974465;28;20590;-76
2022/05/26 16:59:51;;;;;;;2.23;1.23;;;21.80;78.30;;;;;;4973540;28;20273;-77
2022/05/26 17:02:17;;;;;;;1.87;1.20;;;21.50;77.70;;;;;;4974771;28;20670;-77
2022/05/26 17:04:42;;;;;;;2.70;1.33;;;21.50;79.30;;;;;;4974991;28;20214;-76
2022/05/26 17:07:08;;;;;;;3.07;1.10;;;21.20;79.80;;;;;;4974977;28;20721;-77
2022/05/26 17:09:34;;;;;;;8.73;1.60;;;20.70;78.80;;;;;;4974148;28;20218;-78
2022/05/26 17:12:00;;;;;;;3.53;1.03;;;20.30;81.20;;;;;;4974947;28;20210;-77
2022/05/26 17:22:40;;;;;;;2.57;1.20;;;19.70;82.90;;;;;;4974540;28;20500;-77
2022/05/26 17:25:06;;;;;;;3.40;1.00;;;19.40;83.20;;;;;;4974873;28;20420;-75
2022/05/26 17:27:38;;;;;;;3.37;1.50;;;19.10;84.30;;;;;;4974332;28;20464;-76
2022/05/26 17:30:06;;;;;;;2.03;1.30;;;18.90;85.90;;;;;;4974426;28;20779;-76
2022/05/26 17:32:33;;;;;;;2.93;1.70;;;18.70;86.30;;;;;;4974459;28;20445;-78
2022/05/26 17:34:58;;;;;;;1.20;0.90;;;18.70;86.30;;;;;;4974411;28;20921;-77
2022/05/26 17:37:24;;;;;;;2.90;1.10;;;18.70;86.40;;;;;;4974179;28;20421;-76
2022/05/26 17:39:50;;;;;;;2.77;1.33;;;18.70;86.90;;;;;;4973683;28;20178;-77
2022/05/26 17:42:16;;;;;;;2.17;1.10;;;18.70;88.20;;;;;;4973487;28;20198;-76
2022/05/26 17:44:41;;;;;;;1.93;1.10;;;18.70;86.80;;;;;;4953562;29;20181;-76
2022/05/26 17:47:07;;;;;;;3.23;1.23;;;18.70;87.80;;;;;;4954810;29;20223;-76